• Join FlightAware (Why Join?)
  • Login
  • US Flag 
08:18AM EDT


 

Airport Tracker/Info


-or-


 

Live Flight TrackerFlight Track Log ✈ N4324W ✈ 30-Jul-2013 ✈ KPIA - KASX

Flight Track Log - Related Links

Times and Time Zones

All times are in EDT time to prevent confusion due to time zone crossing. See the N4324W flight status page for this flight to view local times or setup timezone preferences in your user account.

Time Position Orientation Groundspeed Altitude Reporting Facility
EDT Latitude Longitude Course Direction KTS MPH feet Rate Location/Type
10:46AM 40.6794 -89.7919 354° North 170 196 3,900  Level Chicago Center
10:47AM 40.7322 -89.8031 351° North 170 196 5,100 960 Climbing Chicago Center
10:48AM 40.7750 -89.8125 351° North 164 189 6,000 780 Climbing Chicago Center
10:49AM 40.9389 -89.7343 353° North  Level FlightAware Approximate
10:49AM 40.8194 -89.8203 352° North 161 185 6,800  Level Chicago Center
10:50AM 40.9873 -89.7423 353° North  Level FlightAware Approximate
10:50AM 40.8667 -89.8289 352° North 165 190 7,400  Level Chicago Center
10:51AM 40.9128 -89.8375 352° North 167 192 7,900 240 Climbing Chicago Center
10:52AM 40.9744 -89.8481 353° North 176 203 8,000  Climbing Chicago Center
10:53AM 41.0275 -89.8567 353° North 185 213 8,000  Level Chicago Center
10:54AM 41.0792 -89.8658 352° North 188 216 8,000  Level Chicago Center
10:55AM 41.1317 -89.8747 353° North 188 216 8,000  Level Chicago Center
10:56AM 41.1850 -89.8844 352° North 191 220 8,000  Level Chicago Center
10:57AM 41.2367 -89.8933 353° North 189 217 8,000  Level Chicago Center
10:58AM 41.3000 -89.9042 353° North 190 219 8,000  Level Chicago Center
10:59AM 41.3528 -89.9133 353° North 191 220 8,000  Level Chicago Center
11:00AM 41.4064 -89.9225 353° North 193 222 8,000  Level Chicago Center
11:01AM 41.4597 -89.9319 352° North 193 222 8,000  Level Chicago Center
11:02AM 41.5117 -89.9431 351° North 190 219 8,000  Level Chicago Center
11:03AM 41.5656 -89.9517 353° North 193 222 8,000  Level Chicago Center
11:04AM 41.6294 -89.9658 351° North 195 224 8,000  Level Chicago Center
11:05AM 41.6842 -89.9756 352° North 197 227 8,000  Level Chicago Center
11:06AM 41.7386 -89.9856 352° North 198 228 8,000  Level Chicago Center
11:08AM 41.7939 -89.9931 354° North 199 229 8,000  Level Chicago Center
11:09AM 41.8558 -90.0042 352° North 201 231 8,000  Level Chicago Center
11:10AM 41.9103 -90.0144 352° North 199 229 8,000  Level Chicago Center
11:11AM 41.9644 -90.0250 352° North 198 228 8,000  Level Chicago Center
11:12AM 42.0169 -90.0325 354° North 193 222 8,000  Level Chicago Center
11:13AM 42.0697 -90.0431 352° North 192 221 8,000  Level Chicago Center
11:14AM 42.1317 -90.0533 353° North 190 219 8,000  Level Chicago Center
11:15AM 42.1847 -90.0622 353° North 191 220 8,000  Level Chicago Center
11:16AM 42.2378 -90.0731 351° North 193 222 8,000  Level Chicago Center
11:17AM 42.2897 -90.0828 352° North 193 222 8,000  Level Chicago Center
11:18AM 42.3539 -90.0944 352° North 195 224 8,000  Level Chicago Center
11:19AM 42.4069 -90.1031 353° North 195 224 8,000  Level Chicago Center
11:20AM 42.4603 -90.1131 352° North 196 226 8,000  Level Chicago Center
11:21AM 42.5128 -90.1228 352° North 193 222 8,000  Level Chicago Center
11:22AM 42.5661 -90.1331 352° North 194 223 8,000  Level Chicago Center
11:23AM 42.6306 -90.1450 352° North 197 227 8,000  Level Chicago Center
11:24AM 42.6819 -90.1542 353° North 191 220 8,000  Level Chicago Center
11:25AM 42.7356 -90.1644 352° North 193 222 8,000  Level Chicago Center
11:26AM 42.7875 -90.1736 353° North 192 221 8,000  Level Chicago Center
11:27AM 42.8519 -90.1856 352° North 195 224 8,000  Level Chicago Center
11:28AM 42.9050 -90.1950 353° North 194 223 8,000  Level Chicago Center
11:29AM 42.9578 -90.2058 351° North 195 224 8,000  Level Chicago Center
11:30AM 43.0111 -90.2156 352° North 195 224 8,000  Level Chicago Center
11:31AM 43.0644 -90.2247 353° North 195 224 8,000  Level Chicago Center
11:32AM 43.1267 -90.2367 352° North 193 222 8,000  Level Chicago Center
11:33AM 43.1783 -90.2467 352° North 190 219 8,000  Level Chicago Center
11:34AM 43.2306 -90.2569 352° North 189 217 8,000  Level Chicago Center
11:35AM 43.2822 -90.2656 353° North 188 216 8,000  Level Chicago Center
11:36AM 43.3439 -90.2781 352° North 189 217 8,000  Level Chicago Center
11:38AM 43.3967 -90.2878 352° North 192 221 8,000  Level Chicago Center
11:39AM 43.4492 -90.2975 352° North 193 222 8,000  Level Chicago Center
11:40AM 43.5006 -90.3072 352° North 191 220 8,000  Level Chicago Center
11:41AM 43.5531 -90.3164 353° North 190 219 8,000  Level Chicago Center
11:42AM 43.6158 -90.3297 351° North 191 220 8,000  Level Chicago Center
11:43AM 43.6600 -90.3364 354° North 188 216 8,000  Level Minneapolis Center
11:44AM 43.7144 -90.3469 352° North 188 216 8,000  Level Minneapolis Center
11:45AM 43.7647 -90.3561 352° North 189 217 8,000  Level Minneapolis Center
11:46AM 43.8189 -90.3669 352° North 187 215 8,000  Level Minneapolis Center
11:47AM 43.8728 -90.3772 352° North 187 215 8,000  Level Minneapolis Center
11:48AM 43.9267 -90.3878 352° North 185 213 8,000  Level Minneapolis Center
11:49AM 43.9806 -90.3978 352° North 187 215 8,000  Level Minneapolis Center
11:50AM 44.0311 -90.4083 351° North 189 217 8,000  Level Minneapolis Center
11:51AM 44.0856 -90.4192 352° North 189 217 8,000  Level Minneapolis Center
11:52AM 44.1528 -90.4317 352° North 189 217 8,000  Level Minneapolis Center
11:53AM 44.2069 -90.4428 352° North 188 216 8,000  Level Minneapolis Center
11:54AM 44.2681 -90.4550 352° North 184 212 8,000  Level Minneapolis Center
11:55AM 44.3211 -90.4653 352° North 183 211 8,000  Level Minneapolis Center
11:56AM 44.3747 -90.4756 352° North 184 212 8,000  Level Minneapolis Center
11:57AM 44.4244 -90.4861 351° North 188 216 8,000  Level Minneapolis Center
11:58AM 44.4794 -90.4972 352° North 189 217 8,000  Level Minneapolis Center
12:00PM 44.5356 -90.5072 353° North 182 209 8,000  Level Minneapolis Center
12:01PM 44.5897 -90.5192 351° North 188 216 8,000  Level Minneapolis Center
12:02PM 44.6419 -90.5289 352° North 180 207 8,000  Level Minneapolis Center
12:03PM 44.6956 -90.5403 351° North 186 214 8,000  Level Minneapolis Center
12:04PM 44.7433 -90.5492 352° North 183 211 8,000  Level Minneapolis Center
12:05PM 44.7878 -90.5583 352° North 180 207 8,000  Level Minneapolis Center
12:06PM 44.8497 -90.5700 352° North 187 215 8,000  Level Minneapolis Center
12:07PM 44.9033 -90.5811 352° North 187 215 8,000  Level Minneapolis Center
12:08PM 44.9553 -90.5914 352° North 179 206 8,000  Level Minneapolis Center
12:09PM 45.0061 -90.6025 351° North 179 206 8,000  Level Minneapolis Center
12:10PM 45.0447 -90.6103 352° North 177 204 8,000  Level Minneapolis Center
12:11PM 45.1064 -90.6228 352° North 173 199 8,000  Level Minneapolis Center
12:12PM 45.1500 -90.6294 354° North 172 198 8,000  Level Minneapolis Center
12:13PM 45.2008 -90.6392 352° North 177 204 8,000  Level Minneapolis Center
12:14PM 45.2500 -90.6494 352° North 179 206 8,000  Level Minneapolis Center
12:15PM 45.3094 -90.6608 352° North 180 207 8,000  Level Minneapolis Center
12:16PM 45.3594 -90.6711 352° North 180 207 8,000  Level Minneapolis Center
12:17PM 45.4094 -90.6822 351° North 181 208 8,000  Level Minneapolis Center
12:18PM 45.4603 -90.6922 352° North 183 211 8,000  Level Minneapolis Center
12:19PM 45.5108 -90.7019 352° North 183 211 8,000  Level Minneapolis Center
12:20PM 45.5606 -90.7131 351° North 182 209 8,000  Level Minneapolis Center
12:21PM 45.6231 -90.7253 352° North 184 212 8,000  Level Minneapolis Center
12:22PM 45.6731 -90.7353 352° North 184 212 8,000  Level Minneapolis Center
12:23PM 45.7236 -90.7475 350° North 183 211 8,000  Level Minneapolis Center
12:24PM 45.7750 -90.7572 352° North 185 213 8,000 -180 Level Minneapolis Center
12:25PM 45.8244 -90.7672 352° North 183 211 7,700 -300 Descending Minneapolis Center
12:26PM 45.8758 -90.7775 352° North 183 211 7,400 -300 Descending Minneapolis Center
12:27PM 45.9261 -90.7872 352° North 184 212 7,100 -360 Descending Minneapolis Center
12:29PM 45.9872 -90.8014 351° North 183 211 6,700 -360 Descending Minneapolis Center
12:30PM 46.0394 -90.8131 351° North 187 215 6,400 -360 Descending Minneapolis Center
12:31PM 46.0889 -90.8242 351° North 184 212 6,000 -360 Descending Minneapolis Center
12:32PM 46.1425 -90.8328 354° North 187 215 5,700 -360 Descending Minneapolis Center
12:33PM 46.2050 -90.8472 351° North 188 216 5,300 -360 Descending Minneapolis Center
12:35PM 46.2874 -90.8641 352° North  Level FlightAware Approximate
12:42PM 46.5333 -90.9167 341° North  Level FlightAware Approximate
12:43PM 46.5485 -90.9190 341° North  Level Estimated
12:44PM 46.5485 -90.9190 341° North  Level Estimated
12:45PM 46.5485 -90.9190 341° North  Level Estimated
12:46PM 46.5485 -90.9190 341° North  Level Estimated
12:47PM 46.5485 -90.9190 341° North  Level Estimated